createdAt,value
2023-04-25T00:01:43.542Z,3.70
2023-04-25T00:05:12.592Z,4.10
2023-04-25T00:08:41.371Z,3.40
2023-04-25T00:12:11.021Z,3.80
2023-04-25T00:15:40.723Z,4.10
2023-04-25T00:19:07.732Z,4.90
2023-04-25T00:22:38.569Z,4.90
2023-04-25T00:26:07.918Z,5.40
2023-04-25T00:29:34.869Z,5.30
2023-04-25T00:33:01.922Z,5.60
2023-04-25T00:36:29.323Z,4.90
2023-04-25T00:39:58.328Z,4.60
2023-04-25T00:43:25.987Z,4.80
2023-04-25T00:46:54.767Z,4.80
2023-04-25T00:50:21.519Z,4.80
2023-04-25T00:53:50.617Z,4.10
2023-04-25T00:57:18.159Z,4.10
2023-04-25T01:00:51.416Z,3.60
2023-04-25T01:04:18.734Z,3.30
2023-04-25T01:07:46.307Z,3.60
2023-04-25T01:11:13.167Z,3.50
2023-04-25T01:14:40.280Z,3.80
2023-04-25T01:18:07.762Z,3.50
2023-04-25T01:21:34.790Z,3.90
2023-04-25T01:25:02.260Z,3.80
2023-04-25T01:28:31.639Z,4.30
2023-04-25T01:31:59.904Z,3.90
2023-04-25T01:35:27.257Z,4.10
2023-04-25T01:38:54.874Z,4.30
2023-04-25T01:42:22.853Z,4.60
2023-04-25T01:45:51.661Z,4.80
2023-04-25T01:49:18.914Z,4.20
2023-04-25T01:52:45.359Z,4.10
2023-04-25T01:56:13.064Z,4.30
2023-04-25T01:59:40.431Z,4.00
2023-04-25T02:03:21.477Z,3.90
2023-04-25T02:06:49.450Z,3.90
2023-04-25T02:10:17.266Z,4.20
2023-04-25T02:13:56.122Z,3.90
2023-04-25T02:17:37.856Z,3.70
2023-04-25T02:21:05.837Z,3.60
2023-04-25T02:24:34.899Z,4.30
2023-04-25T02:28:01.512Z,4.00
2023-04-25T02:31:31.243Z,4.40
2023-04-25T02:35:04.899Z,4.00
2023-04-25T02:38:32.791Z,4.60
2023-04-25T02:41:59.798Z,4.90
2023-04-25T02:45:28.914Z,5.50
2023-04-25T02:48:57.161Z,4.50
2023-04-25T02:52:23.972Z,3.90
2023-04-25T02:56:01.895Z,3.70
2023-04-25T02:59:29.328Z,3.00
2023-04-25T03:02:59.228Z,2.90
2023-04-25T03:06:26.108Z,2.40
2023-04-25T03:09:53.598Z,2.30
2023-04-25T03:13:21.106Z,2.10
2023-04-25T03:16:48.012Z,1.90
2023-04-25T03:20:20.344Z,2.10
2023-04-25T03:23:47.840Z,2.00
2023-04-25T03:27:15.868Z,1.90
2023-04-25T03:30:49.500Z,2.00
2023-04-25T03:34:16.600Z,2.20
2023-04-25T03:37:46.750Z,2.00
2023-04-25T03:41:21.041Z,1.80
2023-04-25T03:45:02.192Z,2.40
2023-04-25T03:48:31.484Z,2.00
2023-04-25T03:51:59.697Z,2.20
2023-04-25T03:55:28.898Z,2.00
2023-04-25T03:58:57.882Z,1.90
2023-04-25T04:02:27.549Z,2.20
2023-04-25T04:05:56.255Z,1.70
2023-04-25T04:09:23.395Z,1.80
2023-04-25T04:12:50.501Z,1.80
2023-04-25T04:16:21.399Z,1.90
2023-04-25T04:19:49.219Z,2.50
2023-04-25T04:23:19.690Z,2.10
2023-04-25T04:26:47.561Z,1.90
2023-04-25T04:30:44.693Z,2.00
2023-04-25T04:34:13.993Z,1.80
2023-04-25T04:37:43.539Z,2.10
2023-04-25T04:41:20.947Z,1.80
2023-04-25T04:45:05.317Z,1.90
2023-04-25T04:48:55.080Z,2.00
2023-04-25T04:52:39.011Z,2.00
2023-04-25T04:56:29.482Z,2.00
2023-04-25T05:00:19.980Z,1.90
2023-04-25T05:04:08.720Z,1.70
2023-04-25T05:07:54.844Z,1.80
2023-04-25T05:11:34.288Z,1.80
2023-04-25T05:15:39.637Z,1.80
2023-04-25T05:19:21.134Z,1.90
2023-04-25T05:26:32.207Z,1.80
2023-04-25T05:30:11.948Z,1.90
2023-04-25T05:34:11.220Z,2.30
2023-04-25T05:37:54.083Z,2.00
2023-04-25T05:41:31.097Z,2.20
2023-04-25T05:45:03.324Z,2.40
2023-04-25T05:48:36.133Z,2.20
2023-04-25T05:52:26.177Z,2.70
2023-04-25T05:56:22.506Z,2.80
2023-04-25T05:59:52.134Z,2.70
2023-04-25T06:03:20.893Z,2.60
2023-04-25T06:06:48.844Z,2.70
2023-04-25T06:10:16.377Z,3.20
2023-04-25T06:13:44.084Z,2.60
2023-04-25T06:17:11.905Z,2.60
2023-04-25T06:20:38.533Z,2.90
2023-04-25T06:24:06.077Z,2.60
2023-04-25T06:27:32.699Z,2.60
2023-04-25T06:31:00.807Z,2.90
2023-04-25T06:34:28.288Z,2.60
2023-04-25T06:37:56.741Z,2.90
2023-04-25T06:41:27.455Z,2.60
2023-04-25T06:44:58.487Z,2.90
2023-04-25T06:48:25.388Z,3.30
2023-04-25T06:51:53.327Z,3.30
2023-04-25T06:55:21.192Z,3.30
2023-04-25T06:59:02.724Z,3.20
2023-04-25T07:02:35.864Z,3.20
2023-04-25T07:06:03.875Z,2.80
2023-04-25T07:09:35.179Z,3.00
2023-04-25T07:13:01.959Z,2.70
2023-04-25T07:16:29.050Z,2.90
2023-04-25T07:19:56.297Z,2.80
2023-04-25T07:23:23.154Z,3.10
2023-04-25T07:26:51.339Z,2.70
2023-04-25T07:30:28.729Z,2.60
2023-04-25T07:33:57.050Z,2.40
2023-04-25T07:37:24.310Z,3.20
2023-04-25T07:41:04.561Z,2.50
2023-04-25T07:44:32.050Z,2.50
2023-04-25T07:47:58.974Z,2.60
2023-04-25T07:51:27.288Z,2.30
2023-04-25T07:54:55.036Z,2.00
2023-04-25T07:58:28.399Z,2.10
2023-04-25T08:01:58.799Z,2.20
2023-04-25T08:05:26.581Z,2.80
2023-04-25T08:08:59.490Z,2.40
2023-04-25T08:12:31.860Z,2.80
2023-04-25T08:15:59.558Z,2.30
2023-04-25T08:19:26.986Z,2.90
2023-04-25T08:22:54.027Z,2.80
2023-04-25T08:26:33.715Z,2.60
2023-04-25T08:30:00.865Z,2.50
2023-04-25T08:33:28.585Z,2.50
2023-04-25T08:37:14.212Z,2.70
2023-04-25T08:40:51.634Z,2.60
2023-04-25T08:44:19.452Z,2.50
2023-04-25T08:47:50.133Z,2.80
2023-04-25T08:51:24.154Z,2.50
2023-04-25T08:54:53.629Z,2.40
2023-04-25T08:58:23.099Z,2.60
2023-04-25T09:01:52.122Z,2.70
2023-04-25T09:05:21.840Z,1.90
2023-04-25T09:08:54.325Z,2.80
2023-04-25T09:12:22.276Z,2.50
2023-04-25T09:15:54.548Z,2.40
2023-04-25T09:19:40.972Z,2.00
2023-04-25T09:23:16.832Z,1.80
2023-04-25T09:26:45.059Z,2.30
2023-04-25T09:30:14.161Z,2.30
2023-04-25T09:34:05.166Z,2.40
2023-04-25T09:37:45.116Z,2.40
2023-04-25T09:41:34.024Z,2.70
2023-04-25T09:45:05.140Z,3.20
2023-04-25T09:48:34.700Z,2.50
2023-04-25T09:52:05.740Z,2.70
2023-04-25T09:55:45.395Z,3.10
2023-04-25T09:59:13.990Z,2.90
2023-04-25T10:02:45.066Z,2.80
2023-04-25T10:06:22.708Z,2.60
2023-04-25T10:09:54.709Z,2.90
2023-04-25T10:13:22.038Z,2.70
2023-04-25T10:16:49.956Z,2.80
2023-04-25T10:20:17.362Z,2.60
2023-04-25T10:23:44.989Z,2.70
2023-04-25T10:27:12.224Z,2.00
2023-04-25T10:30:40.158Z,2.20
2023-04-25T10:34:12.195Z,2.60
2023-04-25T10:37:42.204Z,1.90
2023-04-25T10:41:15.307Z,2.30
2023-04-25T10:44:42.948Z,2.20
2023-04-25T10:48:29.442Z,2.00
2023-04-25T10:52:27.524Z,2.10
2023-04-25T10:55:59.886Z,2.20
2023-04-25T10:59:30.677Z,2.40
2023-04-25T11:03:02.425Z,2.70
2023-04-25T11:06:39.123Z,2.20
2023-04-25T11:10:09.988Z,2.00
2023-04-25T11:13:38.133Z,2.60
2023-04-25T11:17:05.899Z,2.70
2023-04-25T11:20:34.691Z,2.40
2023-04-25T11:24:04.169Z,2.10
2023-04-25T11:27:31.145Z,2.70
2023-04-25T11:30:58.284Z,2.20
2023-04-25T11:34:25.915Z,2.60
2023-04-25T11:37:53.929Z,2.60
2023-04-25T11:41:23.587Z,3.60
2023-04-25T11:44:50.441Z,2.90
2023-04-25T11:48:17.298Z,2.60
2023-04-25T11:51:45.085Z,2.80
2023-04-25T11:55:15.593Z,2.80
2023-04-25T11:59:00.173Z,2.00
2023-04-25T12:02:30.843Z,2.80
2023-04-25T12:06:05.041Z,2.50
2023-04-25T12:09:36.154Z,2.60
2023-04-25T12:13:04.090Z,2.30
2023-04-25T12:16:31.636Z,3.60
2023-04-25T12:19:58.371Z,2.00
2023-04-25T12:23:31.528Z,1.90
2023-04-25T12:30:29.911Z,2.10
2023-04-25T12:33:56.861Z,2.40
2023-04-25T12:37:24.593Z,2.00
2023-04-25T12:40:51.984Z,2.60
2023-04-25T12:44:19.389Z,2.30
2023-04-25T12:47:46.346Z,2.30
2023-04-25T12:51:13.637Z,2.40
2023-04-25T12:54:40.324Z,2.20
2023-04-25T12:58:07.185Z,2.10
2023-04-25T13:01:35.706Z,2.30
2023-04-25T13:05:07.201Z,2.10
2023-04-25T13:08:34.597Z,1.90
2023-04-25T13:12:02.607Z,2.60
2023-04-25T13:15:33.989Z,2.90
2023-04-25T13:19:02.233Z,2.60
2023-04-25T13:22:30.796Z,2.40
2023-04-25T13:26:00.301Z,2.00
2023-04-25T13:29:30.084Z,1.80
2023-04-25T13:33:04.459Z,1.90
2023-04-25T13:36:30.910Z,2.40
2023-04-25T13:39:57.939Z,2.10
2023-04-25T13:43:25.413Z,1.90
2023-04-25T13:46:53.235Z,2.80
2023-04-25T13:50:22.465Z,2.30
2023-04-25T13:53:54.007Z,2.60
2023-04-25T13:57:22.765Z,3.40
2023-04-25T14:00:49.089Z,3.00
2023-04-25T14:04:16.156Z,3.30
2023-04-25T14:07:43.101Z,3.00
2023-04-25T14:11:10.298Z,2.70
2023-04-25T14:14:37.528Z,2.60
2023-04-25T14:18:04.856Z,3.10
2023-04-25T14:21:32.942Z,2.40
2023-04-25T14:25:00.738Z,2.60
2023-04-25T14:28:28.018Z,1.70
2023-04-25T14:31:56.211Z,1.00
2023-04-25T14:35:23.378Z,1.50
2023-04-25T14:38:50.125Z,1.80
2023-04-25T14:42:16.836Z,2.10
2023-04-25T14:45:43.739Z,2.10
2023-04-25T14:49:10.579Z,3.20
2023-04-25T14:52:39.926Z,2.90
2023-04-25T14:56:09.246Z,1.50
2023-04-25T14:59:36.681Z,1.60
2023-04-25T15:03:03.923Z,1.40
2023-04-25T15:06:31.645Z,1.60
2023-04-25T15:09:59.477Z,1.70
2023-04-25T15:13:27.050Z,2.10
2023-04-25T15:16:53.956Z,2.10
2023-04-25T15:20:21.652Z,2.00
2023-04-25T15:23:49.712Z,1.70
2023-04-25T15:27:18.323Z,5.40
2023-04-25T15:30:46.659Z,5.50
2023-04-25T15:34:17.690Z,5.40
2023-04-25T15:37:44.725Z,4.60
2023-04-25T15:41:12.501Z,5.50
2023-04-25T15:44:39.414Z,5.10
2023-04-25T15:48:06.773Z,4.80
2023-04-25T15:51:35.613Z,4.10
2023-04-25T15:55:02.232Z,4.30
2023-04-25T15:58:31.456Z,5.70
2023-04-25T16:01:59.585Z,4.60
2023-04-25T16:05:26.233Z,4.20
2023-04-25T16:08:57.529Z,2.60
2023-04-25T16:12:25.878Z,3.10
2023-04-25T16:15:53.308Z,3.50
2023-04-25T16:19:20.335Z,3.30
2023-04-25T16:22:48.359Z,5.90
2023-04-25T16:26:15.321Z,4.10
2023-04-25T16:29:44.541Z,3.40
2023-04-25T16:33:12.003Z,4.40
2023-04-25T16:36:38.920Z,5.00
2023-04-25T16:40:09.131Z,4.90
2023-04-25T16:43:36.480Z,4.50
2023-04-25T16:47:03.234Z,4.10
2023-04-25T16:50:31.346Z,4.40
2023-04-25T16:53:58.713Z,6.50
2023-04-25T16:57:26.334Z,5.60
2023-04-25T17:00:54.055Z,5.10
2023-04-25T17:04:22.172Z,5.00
2023-04-25T17:07:52.740Z,4.70
2023-04-25T17:11:20.388Z,6.70
2023-04-25T17:14:48.039Z,5.70
2023-04-25T17:18:14.977Z,5.40
2023-04-25T17:21:44.104Z,4.80
2023-04-25T17:25:13.931Z,5.60
2023-04-25T17:28:42.948Z,5.70
2023-04-25T17:32:10.609Z,5.40
2023-04-25T17:35:40.690Z,4.50
2023-04-25T17:39:08.960Z,3.80
2023-04-25T17:42:36.638Z,3.40
2023-04-25T17:46:04.967Z,3.50
2023-04-25T17:49:33.980Z,4.10
2023-04-25T17:53:03.446Z,4.80
2023-04-25T17:56:30.803Z,4.50
2023-04-25T18:00:06.621Z,4.30
2023-04-25T18:03:40.668Z,4.20
2023-04-25T18:07:08.812Z,4.30
2023-04-25T18:10:42.376Z,5.00
2023-04-25T18:14:14.779Z,4.60
2023-04-25T18:17:41.734Z,4.90
2023-04-25T18:21:15.051Z,4.60
2023-04-25T18:24:48.127Z,4.30
2023-04-25T18:28:16.189Z,4.50
2023-04-25T18:31:50.297Z,5.10
2023-04-25T18:35:20.173Z,5.40
2023-04-25T18:38:51.398Z,5.30
2023-04-25T18:42:22.517Z,6.70
2023-04-25T18:45:50.624Z,8.40
2023-04-25T18:49:20.337Z,10.20
2023-04-25T18:52:47.753Z,10.90
2023-04-25T18:56:21.846Z,7.50
2023-04-25T18:59:49.968Z,6.60
2023-04-25T19:03:17.616Z,7.10
2023-04-25T19:06:46.926Z,7.20
2023-04-25T19:10:15.560Z,6.50
2023-04-25T19:13:44.220Z,5.70
2023-04-25T19:17:15.224Z,6.30
2023-04-25T19:20:43.935Z,5.40
2023-04-25T19:24:12.861Z,5.80
2023-04-25T19:27:39.730Z,5.40
2023-04-25T19:31:10.284Z,4.90
2023-04-25T19:34:39.117Z,4.80
2023-04-25T19:38:06.439Z,5.00
2023-04-25T19:41:35.566Z,5.40
2023-04-25T19:45:04.318Z,5.10
2023-04-25T19:48:39.386Z,4.80
2023-04-25T19:52:15.240Z,5.50
2023-04-25T19:55:42.626Z,6.70
2023-04-25T19:59:14.280Z,5.40
2023-04-25T20:02:44.251Z,5.00
2023-04-25T20:06:12.135Z,5.30
2023-04-25T20:09:44.955Z,5.70
2023-04-25T20:13:12.453Z,6.80
2023-04-25T20:16:39.188Z,7.70
2023-04-25T20:20:06.973Z,8.30
2023-04-25T20:23:35.232Z,8.00
2023-04-25T20:27:03.478Z,8.30
2023-04-25T20:30:34.759Z,9.80
2023-04-25T20:34:03.927Z,14.00
2023-04-25T20:37:33.434Z,13.70
2023-04-25T20:41:00.678Z,15.90
2023-04-25T20:44:30.854Z,12.10
2023-04-25T20:48:02.837Z,11.60
2023-04-25T20:51:30.592Z,9.10
2023-04-25T20:54:59.626Z,10.00
2023-04-25T20:58:29.393Z,9.30
2023-04-25T21:01:59.891Z,10.00
2023-04-25T21:05:29.432Z,10.30
2023-04-25T21:08:56.201Z,11.20
2023-04-25T21:12:22.929Z,9.10
2023-04-25T21:15:49.734Z,8.20
2023-04-25T21:19:17.961Z,9.10
2023-04-25T21:22:54.182Z,9.60
2023-04-25T21:26:26.607Z,9.90
2023-04-25T21:29:54.436Z,8.10
2023-04-25T21:33:21.549Z,6.70
2023-04-25T21:36:49.009Z,7.30
2023-04-25T21:40:17.371Z,6.60
2023-04-25T21:43:45.427Z,6.90
2023-04-25T21:47:12.086Z,8.80
2023-04-25T21:50:39.927Z,8.30
2023-04-25T21:54:07.018Z,9.30
2023-04-25T21:57:34.961Z,9.10
2023-04-25T22:01:02.253Z,9.60
2023-04-25T22:04:29.975Z,10.10
2023-04-25T22:07:58.816Z,9.40
2023-04-25T22:11:29.226Z,10.20
2023-04-25T22:15:00.203Z,9.10
2023-04-25T22:18:27.256Z,8.00
2023-04-25T22:21:57.354Z,8.40
2023-04-25T22:25:24.921Z,7.60
2023-04-25T22:28:52.878Z,7.80
2023-04-25T22:32:20.739Z,6.60
2023-04-25T22:35:47.819Z,5.40
2023-04-25T22:39:17.021Z,6.20
2023-04-25T22:42:45.340Z,6.40
2023-04-25T22:46:19.484Z,6.10
2023-04-25T22:49:46.991Z,5.60
2023-04-25T22:53:14.978Z,6.80
2023-04-25T22:56:43.141Z,6.10
2023-04-25T23:00:16.668Z,5.20
2023-04-25T23:03:45.308Z,4.20
2023-04-25T23:07:13.740Z,4.70
2023-04-25T23:10:41.361Z,5.10
2023-04-25T23:14:09.084Z,4.40
2023-04-25T23:17:37.409Z,4.00
2023-04-25T23:21:04.593Z,4.20
2023-04-25T23:24:33.573Z,4.30
2023-04-25T23:28:00.493Z,4.80
2023-04-25T23:31:27.623Z,4.50
2023-04-25T23:34:55.377Z,4.40
2023-04-25T23:38:22.781Z,4.50
2023-04-25T23:41:49.873Z,4.00
2023-04-25T23:45:17.313Z,4.60
2023-04-25T23:48:43.760Z,5.10
2023-04-25T23:52:11.195Z,5.20
2023-04-25T23:55:38.602Z,4.80
2023-04-25T23:59:07.465Z,4.30
